createdAt,value
2022-07-30T04:16:38.956Z,15.84
2022-07-30T04:19:19.764Z,15.77
2022-07-30T04:21:47.847Z,15.95
2022-07-30T04:24:17.151Z,15.99
2022-07-30T04:26:44.732Z,15.80
2022-07-30T04:29:13.734Z,15.59
2022-07-30T04:31:44.644Z,15.91
2022-07-30T04:34:35.072Z,15.91
2022-07-30T04:37:04.588Z,15.55
2022-07-30T04:39:31.373Z,15.86
2022-07-30T04:41:59.147Z,15.93
2022-07-30T04:44:38.481Z,15.93
2022-07-30T04:47:34.279Z,15.94
2022-07-30T04:50:30.350Z,16.03
2022-07-30T04:52:58.338Z,15.62
2022-07-30T04:55:33.932Z,15.86
2022-07-30T04:58:02.145Z,16.00
2022-07-30T05:00:37.737Z,15.98
2022-07-30T05:03:13.031Z,16.00
2022-07-30T05:05:43.122Z,16.07
2022-07-30T05:08:10.027Z,16.10
2022-07-30T05:10:38.291Z,16.13
2022-07-30T05:13:11.359Z,16.20
2022-07-30T05:15:41.251Z,15.81
2022-07-30T05:18:11.400Z,15.97
2022-07-30T05:20:41.699Z,16.13
2022-07-30T05:23:30.968Z,16.24
2022-07-30T05:26:21.765Z,16.32
2022-07-30T05:28:56.921Z,16.37
2022-07-30T05:31:38.108Z,16.41
2022-07-30T05:34:06.125Z,16.27
2022-07-30T05:36:40.593Z,16.20
2022-07-30T05:39:07.288Z,15.90
2022-07-30T05:41:55.097Z,16.25
2022-07-30T05:44:27.425Z,16.40
2022-07-30T05:46:54.893Z,16.65
2022-07-30T05:49:21.452Z,16.62
2022-07-30T05:51:50.389Z,16.72
2022-07-30T05:54:17.825Z,16.83
2022-07-30T05:57:03.634Z,16.81
2022-07-30T05:59:32.488Z,16.75
2022-07-30T06:02:03.342Z,16.68
2022-07-30T06:04:56.265Z,16.80
2022-07-30T06:07:25.379Z,17.03
2022-07-30T06:09:54.544Z,16.93
2022-07-30T06:12:21.111Z,16.82
2022-07-30T06:14:48.435Z,16.57
2022-07-30T06:17:21.998Z,16.42
2022-07-30T06:20:03.448Z,16.93
2022-07-30T06:22:36.206Z,17.04
2022-07-30T06:25:09.656Z,17.19
2022-07-30T06:27:39.748Z,16.86
2022-07-30T06:30:09.816Z,16.81
2022-07-30T06:32:36.696Z,17.40
2022-07-30T06:35:04.973Z,17.26
2022-07-30T06:38:00.677Z,17.01
2022-07-30T06:40:21.592Z,17.37
2022-07-30T06:43:05.179Z,17.63
2022-07-30T06:45:46.313Z,17.50
2022-07-30T06:48:20.260Z,17.47
2022-07-30T06:50:46.960Z,17.61
2022-07-30T06:53:13.626Z,17.83
2022-07-30T06:56:00.609Z,17.61
2022-07-30T06:58:34.200Z,17.76
2022-07-30T07:01:21.585Z,17.80
2022-07-30T07:03:48.198Z,17.98
2022-07-30T07:06:15.189Z,18.24
2022-07-30T07:08:42.651Z,18.28
2022-07-30T07:11:12.429Z,18.32
2022-07-30T07:13:46.085Z,18.17
2022-07-30T07:16:21.840Z,18.46
2022-07-30T07:18:49.402Z,17.97
2022-07-30T07:21:16.141Z,18.38
2022-07-30T07:23:43.293Z,18.26
2022-07-30T07:26:33.237Z,18.34
2022-07-30T07:29:04.736Z,18.31
2022-07-30T07:32:06.153Z,18.62
2022-07-30T07:34:19.426Z,18.48
2022-07-30T07:36:46.274Z,18.71
2022-07-30T07:39:14.987Z,18.74
2022-07-30T07:41:48.914Z,19.00
2022-07-30T07:44:19.717Z,19.28
2022-07-30T07:46:46.331Z,19.44
2022-07-30T07:49:13.134Z,19.30
2022-07-30T07:51:47.012Z,19.33
2022-07-30T07:54:24.117Z,19.29
2022-07-30T07:56:56.094Z,19.80
2022-07-30T07:59:40.575Z,19.68
2022-07-30T08:02:26.546Z,19.50
2022-07-30T08:04:58.772Z,20.10
2022-07-30T08:07:34.847Z,19.85
2022-07-30T08:10:20.251Z,19.98
2022-07-30T08:13:19.353Z,20.16
2022-07-30T08:16:18.238Z,20.10
2022-07-30T08:19:05.213Z,19.79
2022-07-30T08:21:37.821Z,20.19
2022-07-30T08:24:05.865Z,20.37
2022-07-30T08:26:32.466Z,20.78
2022-07-30T08:28:59.001Z,20.44
2022-07-30T08:31:25.605Z,20.73
2022-07-30T08:33:52.267Z,20.59
2022-07-30T08:36:20.568Z,20.43
2022-07-30T08:38:49.545Z,20.75
2022-07-30T08:41:19.836Z,21.01
2022-07-30T08:43:48.667Z,21.09
2022-07-30T08:46:17.813Z,20.87
2022-07-30T08:48:54.954Z,20.98
2022-07-30T08:51:23.577Z,20.84
2022-07-30T08:54:09.540Z,20.82
2022-07-30T08:56:37.221Z,20.86
2022-07-30T08:59:03.893Z,21.45
2022-07-30T09:01:31.039Z,21.04
2022-07-30T09:03:57.682Z,21.14
2022-07-30T09:06:27.050Z,21.47
2022-07-30T09:08:59.594Z,21.64
2022-07-30T09:11:26.938Z,21.34
2022-07-30T09:13:53.541Z,21.15
2022-07-30T09:16:25.785Z,21.27
2022-07-30T09:18:55.244Z,21.09
2022-07-30T09:21:28.424Z,21.52
2022-07-30T09:24:12.866Z,21.24
2022-07-30T09:27:06.288Z,21.60
2022-07-30T09:29:57.618Z,21.26
2022-07-30T09:33:03.431Z,22.07
2022-07-30T09:35:55.969Z,22.24
2022-07-30T09:38:54.310Z,22.52
2022-07-30T09:41:44.099Z,22.09
2022-07-30T09:44:23.871Z,22.49
2022-07-30T09:46:53.525Z,22.60
2022-07-30T09:49:32.791Z,22.69
2022-07-30T09:51:59.994Z,22.80
2022-07-30T09:54:53.189Z,23.07
2022-07-30T09:57:28.129Z,23.79
2022-07-30T10:00:17.011Z,23.59
2022-07-30T10:02:51.667Z,24.20
2022-07-30T10:05:37.038Z,23.60
2022-07-30T10:08:16.381Z,24.83
2022-07-30T10:10:47.245Z,24.75
2022-07-30T10:13:20.884Z,24.75
2022-07-30T10:15:49.633Z,25.28
2022-07-30T10:18:18.182Z,25.70
2022-07-30T10:21:05.338Z,25.60
2022-07-30T10:23:52.909Z,25.65
2022-07-30T10:26:38.909Z,25.62
2022-07-30T10:29:33.977Z,25.84
2022-07-30T10:32:02.141Z,26.06
2022-07-30T10:34:33.984Z,25.41
2022-07-30T10:37:04.858Z,24.39
2022-07-30T10:39:39.691Z,24.73
2022-07-30T10:42:36.674Z,25.09
2022-07-30T10:45:08.260Z,25.21
2022-07-30T10:47:48.846Z,25.05
2022-07-30T10:50:19.533Z,25.28
2022-07-30T10:52:53.362Z,26.04
2022-07-30T10:55:37.535Z,27.18
2022-07-30T10:58:07.171Z,27.62
2022-07-30T11:00:54.609Z,28.05
2022-07-30T11:03:41.172Z,27.64
2022-07-30T11:06:14.853Z,26.73
2022-07-30T11:08:43.430Z,27.42
2022-07-30T11:11:59.333Z,27.91
2022-07-30T11:14:09.102Z,27.73
2022-07-30T11:16:35.563Z,26.86
2022-07-30T11:19:56.708Z,26.91
2022-07-30T11:22:25.199Z,27.43
2022-07-30T11:24:52.723Z,28.00
2022-07-30T11:27:42.335Z,28.42
2022-07-30T11:30:23.398Z,27.80
2022-07-30T11:32:52.520Z,28.51
2022-07-30T11:35:40.197Z,28.66
2022-07-30T11:38:09.587Z,28.37
2022-07-30T11:40:58.890Z,28.75
2022-07-30T11:43:35.443Z,28.27
2022-07-30T11:46:28.426Z,28.88
2022-07-30T11:48:59.208Z,28.29
2022-07-30T11:51:26.786Z,28.19
2022-07-30T11:54:07.479Z,27.93
2022-07-30T11:56:34.730Z,29.23
2022-07-30T11:59:08.440Z,29.30
2022-07-30T12:01:35.970Z,29.87
2022-07-30T12:04:04.410Z,28.72
2022-07-30T12:06:36.668Z,28.53
2022-07-30T12:09:03.635Z,30.29
2022-07-30T12:11:34.587Z,30.43
2022-07-30T12:14:02.584Z,29.82
2022-07-30T12:16:30.907Z,29.82
2022-07-30T12:19:09.735Z,30.47
2022-07-30T12:21:36.850Z,30.92
2022-07-30T12:24:07.623Z,31.06
2022-07-30T12:26:34.741Z,30.68
2022-07-30T12:29:08.988Z,29.58
2022-07-30T12:31:38.507Z,31.17
2022-07-30T12:34:39.100Z,31.53
2022-07-30T12:37:10.141Z,32.13
2022-07-30T12:39:37.098Z,31.74
2022-07-30T12:42:03.815Z,30.69
2022-07-30T12:44:35.331Z,31.10
2022-07-30T12:47:03.083Z,31.74
2022-07-30T12:49:37.638Z,30.54
2022-07-30T12:52:28.166Z,30.56
2022-07-30T12:55:08.996Z,30.53
2022-07-30T12:58:07.058Z,30.72
2022-07-30T13:00:43.942Z,30.45
2022-07-30T13:03:24.724Z,32.60
2022-07-30T13:05:55.565Z,32.76
2022-07-30T13:08:46.075Z,32.61
2022-07-30T13:11:13.233Z,30.87
2022-07-30T13:13:39.772Z,31.45
2022-07-30T13:16:06.999Z,31.68
2022-07-30T13:18:35.220Z,32.85
2022-07-30T13:21:03.498Z,32.12
2022-07-30T13:23:30.156Z,32.20
2022-07-30T13:25:57.111Z,32.64
2022-07-30T13:28:23.683Z,31.74
2022-07-30T13:30:50.275Z,29.75
2022-07-30T13:33:16.789Z,30.02
2022-07-30T13:35:43.892Z,31.26
2022-07-30T13:38:11.592Z,30.57
2022-07-30T13:40:38.490Z,30.83
2022-07-30T13:43:05.775Z,30.32
2022-07-30T13:45:32.520Z,29.85
2022-07-30T13:47:59.406Z,29.55
2022-07-30T13:50:26.048Z,31.73
2022-07-30T13:52:52.882Z,32.24
2022-07-30T13:55:19.458Z,31.89
2022-07-30T13:57:46.647Z,33.09
2022-07-30T14:00:16.846Z,32.75
2022-07-30T14:02:43.423Z,33.79
2022-07-30T14:05:10.053Z,33.57
2022-07-30T14:07:37.773Z,33.09
2022-07-30T14:10:06.998Z,32.33
2022-07-30T14:12:37.917Z,31.72
2022-07-30T14:15:04.987Z,30.95
2022-07-30T14:17:31.698Z,29.68
2022-07-30T14:19:58.392Z,30.54
2022-07-30T14:22:24.889Z,31.03
2022-07-30T14:24:51.448Z,31.15
2022-07-30T14:27:20.388Z,29.73
2022-07-30T14:29:47.387Z,30.93
2022-07-30T14:32:14.117Z,32.34
2022-07-30T14:34:41.208Z,32.57
2022-07-30T14:37:15.653Z,30.29
2022-07-30T14:39:42.283Z,29.95
2022-07-30T14:42:08.902Z,29.90
2022-07-30T14:44:35.676Z,29.96
2022-07-30T14:47:02.992Z,30.45
2022-07-30T14:49:29.954Z,30.05
2022-07-30T14:51:56.603Z,31.13
2022-07-30T14:54:23.174Z,30.82
2022-07-30T14:56:53.585Z,32.32
2022-07-30T14:59:22.903Z,32.38
2022-07-30T15:01:49.657Z,32.49
2022-07-30T15:04:16.303Z,32.91
2022-07-30T15:06:43.100Z,30.48
2022-07-30T15:09:10.277Z,30.84
2022-07-30T15:12:04.415Z,31.89
2022-07-30T15:14:24.182Z,31.59
2022-07-30T15:16:51.363Z,32.22
2022-07-30T15:19:17.976Z,33.04
2022-07-30T15:21:44.873Z,31.81
2022-07-30T15:24:11.676Z,31.63
2022-07-30T15:26:38.528Z,30.36
2022-07-30T15:29:05.345Z,30.01
2022-07-30T15:31:34.531Z,28.86
2022-07-30T15:34:10.784Z,28.62
2022-07-30T15:36:48.561Z,29.09
2022-07-30T15:39:19.695Z,29.91
2022-07-30T15:41:55.659Z,30.37
2022-07-30T15:44:22.515Z,29.93
2022-07-30T15:46:49.339Z,29.40
2022-07-30T15:49:16.234Z,29.99
2022-07-30T15:51:50.049Z,31.19
2022-07-30T15:54:22.449Z,31.95
2022-07-30T15:57:01.326Z,32.23
2022-07-30T15:59:28.972Z,30.42
2022-07-30T16:01:56.167Z,30.98
2022-07-30T16:04:37.557Z,30.87
2022-07-30T16:07:04.461Z,31.20
2022-07-30T16:09:31.681Z,30.99
2022-07-30T16:11:58.748Z,31.69
2022-07-30T16:14:26.217Z,31.01
2022-07-30T16:16:54.917Z,30.87
2022-07-30T16:19:21.722Z,31.13
2022-07-30T16:21:58.484Z,30.84
2022-07-30T16:24:33.368Z,30.79
2022-07-30T16:27:00.500Z,30.04
2022-07-30T16:29:27.116Z,30.75
2022-07-30T16:31:53.645Z,31.11
2022-07-30T16:34:26.391Z,29.71
2022-07-30T16:36:53.394Z,28.66
2022-07-30T16:39:19.949Z,29.47
2022-07-30T16:41:46.586Z,29.93
2022-07-30T16:44:13.159Z,30.18
2022-07-30T16:46:39.696Z,30.04
2022-07-30T16:49:06.980Z,30.39
2022-07-30T16:51:44.499Z,30.34
2022-07-30T16:54:11.589Z,29.95
2022-07-30T16:56:38.209Z,30.06
2022-07-30T16:59:04.685Z,29.75
2022-07-30T17:01:32.178Z,28.80
2022-07-30T17:03:58.826Z,29.63
2022-07-30T17:06:25.582Z,30.25
2022-07-30T17:08:52.176Z,30.05
2022-07-30T17:11:46.394Z,30.38
2022-07-30T17:14:06.048Z,29.80
2022-07-30T17:16:32.670Z,29.69
2022-07-30T17:18:59.237Z,29.90
2022-07-30T17:21:25.812Z,29.80
2022-07-30T17:23:52.401Z,29.70
2022-07-30T17:26:19.046Z,29.48
2022-07-30T17:28:45.637Z,29.42
2022-07-30T17:31:12.599Z,29.22
2022-07-30T17:33:39.099Z,28.51
2022-07-30T17:36:08.384Z,29.29
2022-07-30T17:38:35.409Z,28.46
2022-07-30T17:41:02.294Z,28.86
2022-07-30T17:43:28.813Z,28.78
2022-07-30T17:45:55.414Z,28.10
2022-07-30T17:48:21.978Z,27.39
2022-07-30T17:50:48.655Z,28.09
2022-07-30T17:53:15.318Z,27.38
2022-07-30T17:55:57.873Z,27.70
2022-07-30T17:58:25.076Z,27.35
2022-07-30T18:00:51.886Z,27.17
2022-07-30T18:03:18.453Z,27.03
2022-07-30T18:05:45.007Z,27.22
2022-07-30T18:08:11.695Z,27.06
2022-07-30T18:10:38.267Z,26.58
2022-07-30T18:13:22.555Z,26.63
2022-07-30T18:15:52.609Z,26.55
2022-07-30T18:18:19.377Z,26.37
2022-07-30T18:20:48.349Z,26.62
2022-07-30T18:23:19.193Z,26.28
2022-07-30T18:25:53.029Z,26.26
2022-07-30T18:28:21.278Z,26.17
2022-07-30T18:30:48.047Z,26.20
2022-07-30T18:33:15.988Z,26.11
2022-07-30T18:35:43.216Z,26.27
2022-07-30T18:38:09.835Z,26.27
2022-07-30T18:40:36.556Z,26.47
2022-07-30T18:43:03.942Z,26.20
2022-07-30T18:45:32.936Z,26.08
2022-07-30T18:48:03.170Z,26.23
2022-07-30T18:50:29.658Z,26.26
2022-07-30T18:52:56.426Z,26.10
2022-07-30T18:55:22.983Z,26.12
2022-07-30T18:57:52.279Z,26.10
2022-07-30T19:00:34.868Z,25.94
2022-07-30T19:03:02.579Z,26.07
2022-07-30T19:05:29.179Z,25.98
2022-07-30T19:07:58.533Z,25.70
2022-07-30T19:10:26.687Z,25.61
2022-07-30T19:12:54.645Z,25.39
2022-07-30T19:15:21.240Z,25.34
2022-07-30T19:17:49.251Z,25.39
2022-07-30T19:20:15.828Z,25.14
2022-07-30T19:22:42.423Z,24.98
2022-07-30T19:25:10.239Z,24.96
2022-07-30T19:27:36.993Z,24.95
2022-07-30T19:30:04.338Z,24.66
2022-07-30T19:32:30.943Z,24.75
2022-07-30T19:34:57.496Z,24.56
2022-07-30T19:37:24.005Z,24.24
2022-07-30T19:39:58.634Z,23.97
2022-07-30T19:42:33.732Z,23.62
2022-07-30T19:45:11.222Z,23.20
2022-07-30T19:47:39.737Z,23.18
2022-07-30T19:50:10.006Z,23.01
2022-07-30T19:52:36.754Z,23.14
2022-07-30T19:55:31.127Z,22.92
2022-07-30T19:57:54.252Z,23.04
2022-07-30T20:00:25.034Z,23.02
2022-07-30T20:03:14.040Z,23.15
2022-07-30T20:05:57.401Z,23.13
2022-07-30T20:08:26.093Z,23.22
2022-07-30T20:10:52.662Z,23.06
2022-07-30T20:13:19.555Z,23.02
2022-07-30T20:15:46.212Z,23.03
2022-07-30T20:18:12.815Z,22.97
2022-07-30T20:20:41.354Z,22.99
2022-07-30T20:23:08.204Z,22.84
2022-07-30T20:25:37.417Z,22.92
2022-07-30T20:28:05.127Z,23.01
2022-07-30T20:30:32.317Z,22.91
2022-07-30T20:32:59.336Z,23.06
2022-07-30T20:35:29.182Z,23.05
2022-07-30T20:37:56.630Z,23.12
2022-07-30T20:40:26.512Z,23.13
2022-07-30T20:42:53.637Z,23.10
2022-07-30T20:45:24.429Z,23.13
2022-07-30T20:47:55.329Z,23.24
2022-07-30T20:50:31.005Z,23.30
2022-07-30T20:52:58.381Z,23.25
2022-07-30T20:55:25.220Z,22.98
2022-07-30T20:58:00.329Z,22.88
2022-07-30T21:00:36.610Z,22.75
2022-07-30T21:03:04.293Z,22.67
2022-07-30T21:05:31.441Z,22.59
2022-07-30T21:07:58.680Z,22.74
2022-07-30T21:10:25.366Z,22.80
2022-07-30T21:12:56.993Z,22.77
2022-07-30T21:15:32.446Z,22.70
2022-07-30T21:17:59.798Z,22.69
2022-07-30T21:20:30.186Z,22.74
2022-07-30T21:23:06.132Z,22.55
2022-07-30T21:26:00.493Z,22.54
2022-07-30T21:28:27.578Z,22.46
2022-07-30T21:30:54.550Z,22.08
2022-07-30T21:33:24.194Z,21.72
2022-07-30T21:35:57.484Z,21.35
2022-07-30T21:38:26.306Z,21.55
2022-07-30T21:40:52.896Z,21.25
2022-07-30T21:43:22.968Z,21.07
2022-07-30T21:45:59.596Z,21.16
2022-07-30T21:48:26.751Z,20.95
2022-07-30T21:50:55.049Z,20.68
2022-07-30T21:53:29.885Z,20.52
2022-07-30T21:56:08.251Z,20.41
2022-07-30T21:58:34.793Z,20.60
